createdAt,value
2022-12-12T00:00:40.007Z,21.55
2022-12-12T00:03:06.695Z,23.90
2022-12-12T00:05:33.624Z,23.15
2022-12-12T00:08:00.212Z,24.20
2022-12-12T00:10:26.707Z,21.58
2022-12-12T00:12:53.145Z,25.38
2022-12-12T00:15:19.743Z,26.70
2022-12-12T00:17:46.256Z,32.78
2022-12-12T00:20:12.707Z,23.85
2022-12-12T00:22:39.206Z,21.08
2022-12-12T00:25:06.348Z,28.63
2022-12-12T00:27:33.484Z,29.10
2022-12-12T00:30:00.186Z,24.45
2022-12-12T00:32:26.783Z,21.00
2022-12-12T00:34:53.257Z,24.13
2022-12-12T00:37:19.891Z,24.33
2022-12-12T00:39:46.596Z,26.33
2022-12-12T00:42:13.204Z,21.60
2022-12-12T00:44:39.979Z,23.35
2022-12-12T00:47:06.467Z,23.05
2022-12-12T00:49:33.311Z,22.40
2022-12-12T00:51:59.957Z,23.77
2022-12-12T00:54:26.382Z,25.70
2022-12-12T00:56:52.871Z,24.30
2022-12-12T00:59:19.797Z,25.13
2022-12-12T01:01:47.279Z,21.92
2022-12-12T01:04:14.285Z,25.02
2022-12-12T01:06:40.856Z,26.70
2022-12-12T01:09:07.442Z,26.30
2022-12-12T01:11:33.871Z,24.63
2022-12-12T01:14:01.147Z,25.30
2022-12-12T01:16:27.867Z,25.30
2022-12-12T01:18:54.350Z,23.73
2022-12-12T01:21:21.541Z,22.73
2022-12-12T01:23:48.257Z,23.77
2022-12-12T01:26:19.307Z,25.58
2022-12-12T01:28:46.542Z,25.02
2022-12-12T01:31:14.069Z,22.70
2022-12-12T01:33:45.796Z,22.65
2022-12-12T01:36:16.565Z,24.75
2022-12-12T01:38:47.074Z,24.33
2022-12-12T01:41:14.091Z,23.58
2022-12-12T01:43:41.063Z,26.75
2022-12-12T01:46:22.723Z,27.42
2022-12-12T01:48:54.715Z,26.38
2022-12-12T01:51:23.492Z,25.30
2022-12-12T01:53:54.359Z,23.50
2022-12-12T01:56:21.496Z,28.60
2022-12-12T01:58:51.223Z,26.52
2022-12-12T02:01:19.082Z,22.55
2022-12-12T02:03:47.219Z,24.13
2022-12-12T02:06:22.228Z,23.45
2022-12-12T02:08:51.374Z,22.80
2022-12-12T02:11:17.951Z,22.13
2022-12-12T02:13:45.288Z,24.75
2022-12-12T02:16:26.788Z,22.25
2022-12-12T02:19:03.272Z,24.33
2022-12-12T02:21:48.226Z,21.98
2022-12-12T02:24:36.754Z,24.38
2022-12-12T02:27:33.280Z,21.33
2022-12-12T02:30:18.429Z,22.08
2022-12-12T02:33:15.215Z,24.20
2022-12-12T02:35:53.666Z,23.42
2022-12-12T02:38:37.230Z,23.98
2022-12-12T02:41:09.893Z,19.17
2022-12-12T02:43:44.617Z,23.40
2022-12-12T02:46:32.721Z,21.48
2022-12-12T02:49:06.787Z,22.30
2022-12-12T02:51:34.812Z,21.77
2022-12-12T02:54:04.339Z,19.20
2022-12-12T02:59:26.061Z,19.70
2022-12-12T03:02:14.389Z,22.17
2022-12-12T03:05:10.757Z,21.45
2022-12-12T03:08:14.422Z,17.45
2022-12-12T03:10:49.723Z,22.52
2022-12-12T03:13:44.138Z,20.52
2022-12-12T03:16:24.339Z,19.70
2022-12-12T03:19:14.172Z,22.25
2022-12-12T03:21:43.867Z,19.63
2022-12-12T03:24:15.935Z,23.48
2022-12-12T03:26:47.448Z,20.48
2022-12-12T03:29:20.510Z,28.30
2022-12-12T03:31:54.518Z,19.73
2022-12-12T03:34:26.751Z,20.73
2022-12-12T03:37:01.075Z,21.30
2022-12-12T03:39:33.910Z,17.90
2022-12-12T03:42:11.645Z,19.58
2022-12-12T03:44:46.504Z,20.45
2022-12-12T03:47:23.041Z,20.98
2022-12-12T03:49:58.946Z,19.70
2022-12-12T03:52:33.146Z,18.45
2022-12-12T03:55:38.825Z,16.15
2022-12-12T03:58:27.276Z,22.15
2022-12-12T04:00:57.984Z,16.75
2022-12-12T04:03:32.559Z,16.85
2022-12-12T04:06:28.220Z,22.10
2022-12-12T04:09:30.243Z,16.60
2022-12-12T04:12:32.446Z,19.75
2022-12-12T04:15:26.535Z,18.23
2022-12-12T04:18:11.012Z,17.75
2022-12-12T04:20:58.842Z,18.30
2022-12-12T04:23:25.184Z,20.42
2022-12-12T04:26:18.960Z,21.60
2022-12-12T04:28:57.035Z,17.42
2022-12-12T04:31:26.391Z,16.77
2022-12-12T04:33:57.989Z,23.38
2022-12-12T04:36:25.918Z,22.20
2022-12-12T04:38:53.289Z,22.00
2022-12-12T04:41:21.290Z,21.25
2022-12-12T04:43:50.763Z,21.08
2022-12-12T04:46:23.130Z,20.13
2022-12-12T04:49:00.267Z,23.13
2022-12-12T04:51:31.623Z,21.08
2022-12-12T04:54:13.922Z,25.17
2022-12-12T04:56:44.429Z,17.40
2022-12-12T04:59:12.721Z,21.40
2022-12-12T05:02:08.526Z,21.40
2022-12-12T05:04:49.816Z,20.27
2022-12-12T05:07:39.782Z,21.38
2022-12-12T05:10:11.132Z,17.15
2022-12-12T05:12:44.351Z,19.77
2022-12-12T05:15:11.637Z,18.27
2022-12-12T05:17:44.628Z,18.40
2022-12-12T05:20:11.265Z,18.40
2022-12-12T05:22:37.669Z,22.23
2022-12-12T05:25:04.511Z,20.83
2022-12-12T05:27:30.978Z,22.70
2022-12-12T05:29:57.519Z,16.85
2022-12-12T05:32:24.052Z,17.70
2022-12-12T05:34:50.446Z,18.88
2022-12-12T05:37:16.928Z,17.60
2022-12-12T05:39:43.399Z,18.30
2022-12-12T05:42:09.927Z,17.60
2022-12-12T05:44:36.355Z,23.88
2022-12-12T05:47:02.806Z,18.65
2022-12-12T05:49:29.286Z,18.42
2022-12-12T05:51:55.697Z,15.88
2022-12-12T05:54:22.254Z,20.00
2022-12-12T05:56:48.749Z,22.48
2022-12-12T05:59:15.283Z,22.83
2022-12-12T06:01:42.074Z,20.85
2022-12-12T06:04:08.646Z,20.40
2022-12-12T06:06:35.076Z,19.02
2022-12-12T06:09:01.557Z,18.48
2022-12-12T06:11:28.072Z,18.98
2022-12-12T06:13:54.491Z,16.73
2022-12-12T06:16:21.036Z,20.13
2022-12-12T06:18:52.619Z,18.92
2022-12-12T06:21:20.750Z,20.08
2022-12-12T06:23:47.759Z,20.33
2022-12-12T06:26:16.519Z,19.17
2022-12-12T06:28:43.706Z,21.27
2022-12-12T06:31:12.075Z,19.83
2022-12-12T06:33:40.701Z,18.98
2022-12-12T06:36:12.918Z,17.63
2022-12-12T06:38:40.076Z,21.70
2022-12-12T06:41:12.470Z,20.95
2022-12-12T06:43:40.075Z,17.40
2022-12-12T06:46:08.244Z,20.38
2022-12-12T06:48:35.976Z,17.58
2022-12-12T06:51:10.294Z,20.60
2022-12-12T06:53:37.244Z,18.90
2022-12-12T06:56:13.889Z,17.60
2022-12-12T06:58:40.462Z,20.45
2022-12-12T07:01:07.447Z,17.40
2022-12-12T07:03:34.349Z,21.15
2022-12-12T07:06:00.996Z,21.13
2022-12-12T07:08:28.292Z,20.65
2022-12-12T07:10:55.810Z,18.38
2022-12-12T07:13:22.607Z,16.08
2022-12-12T07:15:50.599Z,18.67
2022-12-12T07:18:18.934Z,18.65
2022-12-12T07:20:46.316Z,22.58
2022-12-12T07:23:13.571Z,18.27
2022-12-12T07:25:42.426Z,21.60
2022-12-12T07:28:10.292Z,14.98
2022-12-12T07:30:42.452Z,16.83
2022-12-12T07:33:09.728Z,19.02
2022-12-12T07:35:36.534Z,27.75
2022-12-12T07:38:04.102Z,24.77
2022-12-12T07:40:31.038Z,25.20
2022-12-12T07:42:59.232Z,25.75
2022-12-12T07:45:26.370Z,22.75
2022-12-12T07:47:53.398Z,16.48
2022-12-12T07:50:20.451Z,20.63
2022-12-12T07:52:46.904Z,17.80
2022-12-12T07:55:13.664Z,18.92
2022-12-12T07:57:41.344Z,24.98
2022-12-12T08:00:09.696Z,22.40
2022-12-12T08:02:36.355Z,15.38
2022-12-12T08:05:02.920Z,19.88
2022-12-12T08:07:29.451Z,20.88
2022-12-12T08:09:56.012Z,18.23
2022-12-12T08:12:22.551Z,17.08
2022-12-12T08:14:49.043Z,23.33
2022-12-12T08:17:15.500Z,20.00
2022-12-12T08:19:42.074Z,17.55
2022-12-12T08:22:08.612Z,21.88
2022-12-12T08:24:35.287Z,26.90
2022-12-12T08:27:01.809Z,22.60
2022-12-12T08:29:28.317Z,20.10
2022-12-12T08:31:54.880Z,16.70
2022-12-12T08:34:21.689Z,21.67
2022-12-12T08:36:49.139Z,19.00
2022-12-12T08:39:17.001Z,15.98
2022-12-12T08:41:48.019Z,18.60
2022-12-12T08:44:16.444Z,19.33
2022-12-12T08:46:43.072Z,19.85
2022-12-12T08:49:10.798Z,17.35
2022-12-12T08:51:41.208Z,19.15
2022-12-12T08:54:08.831Z,19.77
2022-12-12T08:56:35.588Z,20.05
2022-12-12T08:59:02.572Z,23.92
2022-12-12T09:01:29.108Z,17.83
2022-12-12T09:03:56.999Z,21.20
2022-12-12T09:06:25.035Z,19.33
2022-12-12T09:08:51.898Z,18.13
2022-12-12T09:11:18.966Z,17.73
2022-12-12T09:13:45.523Z,20.58
2022-12-12T09:16:12.712Z,18.92
2022-12-12T09:18:47.752Z,19.75
2022-12-12T09:23:41.324Z,15.32
2022-12-12T09:26:09.180Z,19.65
2022-12-12T09:28:36.158Z,17.55
2022-12-12T09:31:11.121Z,16.67
2022-12-12T09:33:38.407Z,17.98
2022-12-12T09:36:07.946Z,17.65
2022-12-12T09:38:35.472Z,18.33
2022-12-12T09:41:19.476Z,17.13
2022-12-12T09:44:00.332Z,14.05
2022-12-12T09:46:38.788Z,15.55
2022-12-12T09:49:12.409Z,16.70
2022-12-12T09:51:40.422Z,13.90
2022-12-12T09:54:07.055Z,16.65
2022-12-12T09:56:59.195Z,19.30
2022-12-12T09:59:31.624Z,18.58
2022-12-12T10:02:19.846Z,19.80
2022-12-12T10:05:09.359Z,17.10
2022-12-12T10:07:46.413Z,17.52
2022-12-12T10:10:20.057Z,15.77
2022-12-12T10:12:48.170Z,17.50
2022-12-12T10:15:31.510Z,14.40
2022-12-12T10:18:00.473Z,16.83
2022-12-12T10:20:33.506Z,16.70
2022-12-12T10:23:30.698Z,18.27
2022-12-12T10:26:13.669Z,15.68
2022-12-12T10:28:40.131Z,14.38
2022-12-12T10:31:31.023Z,14.95
2022-12-12T10:34:31.784Z,12.95
2022-12-12T10:37:23.136Z,16.33
2022-12-12T10:40:02.663Z,14.85
2022-12-12T10:42:39.778Z,18.58
2022-12-12T10:45:21.799Z,15.82
2022-12-12T10:47:48.732Z,17.25
2022-12-12T10:50:50.952Z,20.35
2022-12-12T10:53:19.515Z,16.70
2022-12-12T10:56:01.025Z,19.35
2022-12-12T10:58:39.631Z,17.38
2022-12-12T11:04:24.891Z,14.80
2022-12-12T11:06:54.896Z,18.83
2022-12-12T11:09:27.468Z,19.50
2022-12-12T11:12:03.357Z,16.08
2022-12-12T11:14:36.838Z,17.13
2022-12-12T11:17:20.908Z,15.07
2022-12-12T11:19:47.535Z,18.23
2022-12-12T11:22:27.463Z,18.70
2022-12-12T11:24:54.551Z,13.32
2022-12-12T11:27:25.733Z,14.73
2022-12-12T11:29:55.802Z,20.63
2022-12-12T11:32:38.371Z,14.45
2022-12-12T11:35:08.285Z,17.75
2022-12-12T11:37:45.839Z,15.05
2022-12-12T11:40:27.177Z,15.43
2022-12-12T11:43:13.540Z,15.73
2022-12-12T11:45:40.174Z,16.33
2022-12-12T11:48:35.590Z,15.10
2022-12-12T11:51:02.156Z,15.73
2022-12-12T11:53:29.425Z,18.30
2022-12-12T11:56:18.956Z,19.08
2022-12-12T11:58:53.704Z,15.65
2022-12-12T12:01:45.265Z,14.50
2022-12-12T12:04:25.010Z,15.00
2022-12-12T12:06:57.648Z,15.10
2022-12-12T12:09:37.237Z,14.93
2022-12-12T12:12:07.112Z,15.57
2022-12-12T12:14:52.115Z,17.50
2022-12-12T12:17:41.196Z,18.90
2022-12-12T12:20:23.944Z,15.07
2022-12-12T12:23:07.633Z,16.05
2022-12-12T12:25:55.317Z,16.70
2022-12-12T12:28:42.986Z,18.23
2022-12-12T12:31:17.603Z,16.50
2022-12-12T12:34:24.961Z,14.30
2022-12-12T12:37:23.888Z,15.27
2022-12-12T12:39:59.276Z,15.88
2022-12-12T12:42:52.037Z,15.75
2022-12-12T12:45:25.515Z,14.32
2022-12-12T12:47:58.796Z,17.38
2022-12-12T12:50:31.342Z,14.77
2022-12-12T12:53:07.239Z,17.70
2022-12-12T12:55:41.844Z,13.75
2022-12-12T12:58:18.722Z,16.98
2022-12-12T13:00:51.857Z,14.73
2022-12-12T13:03:24.428Z,11.85
2022-12-12T13:06:02.528Z,15.93
2022-12-12T13:08:43.493Z,16.08
2022-12-12T13:11:25.454Z,15.77
2022-12-12T13:13:54.941Z,14.60
2022-12-12T13:16:26.778Z,17.38
2022-12-12T13:19:32.261Z,11.65
2022-12-12T13:22:14.049Z,20.20
2022-12-12T13:24:59.593Z,13.27
2022-12-12T13:27:55.689Z,16.85
2022-12-12T13:30:27.538Z,13.18
2022-12-12T13:32:59.807Z,15.07
2022-12-12T13:35:42.899Z,13.90
2022-12-12T13:38:19.099Z,13.20
2022-12-12T13:40:56.463Z,12.50
2022-12-12T13:43:41.475Z,13.63
2022-12-12T13:46:30.690Z,14.95
2022-12-12T13:49:06.346Z,14.07
2022-12-12T13:51:39.022Z,17.20
2022-12-12T13:54:13.287Z,12.35
2022-12-12T13:56:46.392Z,15.40
2022-12-12T13:59:22.087Z,12.18
2022-12-12T14:01:59.539Z,14.40
2022-12-12T14:04:32.038Z,11.43
2022-12-12T14:07:02.794Z,12.00
2022-12-12T14:09:47.242Z,16.13
2022-12-12T14:12:29.195Z,12.93
2022-12-12T14:15:07.196Z,13.18
2022-12-12T14:17:42.734Z,12.57
2022-12-12T14:20:34.597Z,11.35
2022-12-12T14:23:10.280Z,18.33
2022-12-12T14:25:39.383Z,13.10
2022-12-12T14:28:23.993Z,15.27
2022-12-12T14:31:05.930Z,11.45
2022-12-12T14:33:41.543Z,14.27
2022-12-12T14:38:52.279Z,11.18
2022-12-12T14:41:24.371Z,12.30
2022-12-12T14:44:37.711Z,12.57
2022-12-12T14:46:48.504Z,15.02
2022-12-12T14:49:16.940Z,14.18
2022-12-12T14:51:46.972Z,13.30
2022-12-12T14:54:22.217Z,11.73
2022-12-12T14:56:53.182Z,12.07
2022-12-12T14:59:24.332Z,13.10
2022-12-12T15:01:54.575Z,14.18
2022-12-12T15:04:25.720Z,14.02
2022-12-12T15:06:57.103Z,10.35
2022-12-12T15:09:37.299Z,12.68
2022-12-12T15:12:10.249Z,12.02
2022-12-12T15:14:57.876Z,10.85
2022-12-12T15:17:45.620Z,15.52
2022-12-12T15:20:18.964Z,13.43
2022-12-12T15:22:57.705Z,15.65
2022-12-12T15:25:27.662Z,18.48
2022-12-12T15:27:56.553Z,10.88
2022-12-12T15:30:42.226Z,13.75
2022-12-12T15:33:21.210Z,11.05
2022-12-12T15:36:02.229Z,11.40
2022-12-12T15:38:30.004Z,23.38
2022-12-12T15:41:03.342Z,14.07
2022-12-12T15:43:31.783Z,13.10
2022-12-12T15:46:14.316Z,12.80
2022-12-12T15:48:42.680Z,13.90
2022-12-12T15:51:10.847Z,17.25
2022-12-12T15:53:46.534Z,15.00
2022-12-12T15:59:07.690Z,12.20
2022-12-12T16:01:34.474Z,14.32
2022-12-12T16:04:08.464Z,14.43
2022-12-12T16:06:48.666Z,12.23
2022-12-12T16:09:26.307Z,12.65
2022-12-12T16:11:53.927Z,16.27
2022-12-12T16:14:38.998Z,17.73
2022-12-12T16:17:18.757Z,14.02
2022-12-12T16:19:47.224Z,15.07
2022-12-12T16:22:21.157Z,11.07
2022-12-12T16:24:54.098Z,14.73
2022-12-12T16:27:21.159Z,15.07
2022-12-12T16:29:48.528Z,14.57
2022-12-12T16:32:17.146Z,13.07
2022-12-12T16:34:44.872Z,14.35
2022-12-12T16:37:17.101Z,14.25
2022-12-12T16:39:44.513Z,14.50
2022-12-12T16:42:16.317Z,13.32
2022-12-12T16:44:43.706Z,12.73
2022-12-12T16:47:24.676Z,14.38
2022-12-12T16:49:52.155Z,12.57
2022-12-12T16:52:20.359Z,12.45
2022-12-12T16:54:53.282Z,15.02
2022-12-12T16:57:21.066Z,13.27
2022-12-12T16:59:47.904Z,14.15
2022-12-12T17:02:20.804Z,14.50
2022-12-12T17:04:48.483Z,14.00
2022-12-12T17:07:15.140Z,15.18
2022-12-12T17:09:41.845Z,13.52
2022-12-12T17:12:09.265Z,13.77
2022-12-12T17:14:37.430Z,13.70
2022-12-12T17:17:05.213Z,11.73
2022-12-12T17:19:32.202Z,12.55
2022-12-12T17:21:58.753Z,21.50
2022-12-12T17:24:25.311Z,16.67
2022-12-12T17:26:52.180Z,16.60
2022-12-12T17:29:18.772Z,16.30
2022-12-12T17:31:45.392Z,15.48
2022-12-12T17:34:12.043Z,15.60
2022-12-12T17:36:38.662Z,15.55
2022-12-12T17:39:05.905Z,18.33
2022-12-12T17:41:32.356Z,14.63
2022-12-12T17:43:58.901Z,16.98
2022-12-12T17:46:27.750Z,16.65
2022-12-12T17:48:56.739Z,16.60
2022-12-12T17:51:26.159Z,18.25
2022-12-12T17:53:52.957Z,18.23
2022-12-12T17:56:24.935Z,16.02
2022-12-12T17:58:51.652Z,16.85
2022-12-12T18:01:21.830Z,18.55
2022-12-12T18:03:50.019Z,15.60
2022-12-12T18:06:18.871Z,15.27
2022-12-12T18:08:46.162Z,17.40
2022-12-12T18:11:15.758Z,18.67
2022-12-12T18:16:12.173Z,16.05
2022-12-12T18:18:39.813Z,17.45
2022-12-12T18:24:15.480Z,19.08
2022-12-12T18:26:42.621Z,21.75
2022-12-12T18:29:12.153Z,16.90
2022-12-12T18:34:06.439Z,19.88
2022-12-12T18:36:46.550Z,16.50
2022-12-12T18:39:13.097Z,17.48
2022-12-12T18:41:39.868Z,19.17
2022-12-12T18:44:10.538Z,16.80
2022-12-12T18:46:42.682Z,18.60
2022-12-12T18:49:10.831Z,14.88
2022-12-12T18:51:37.379Z,17.67
2022-12-12T18:54:09.427Z,14.48
2022-12-12T18:56:40.650Z,18.98
2022-12-12T18:59:07.829Z,14.30
2022-12-12T19:01:36.427Z,17.45
2022-12-12T19:04:10.951Z,17.98
2022-12-12T19:06:38.440Z,20.55
2022-12-12T19:09:12.620Z,16.45
2022-12-12T19:11:39.147Z,19.33
2022-12-12T19:14:07.836Z,19.60
2022-12-12T19:16:34.478Z,18.75
2022-12-12T19:19:01.961Z,17.17
2022-12-12T19:21:28.644Z,24.20
2022-12-12T19:23:55.552Z,19.90
2022-12-12T19:26:26.883Z,24.08
2022-12-12T19:29:07.635Z,17.13
2022-12-12T19:31:36.269Z,16.02
2022-12-12T19:34:04.663Z,20.05
2022-12-12T19:36:36.163Z,25.98
2022-12-12T19:39:05.346Z,18.88
2022-12-12T19:41:32.311Z,18.85
2022-12-12T19:44:04.311Z,15.63
2022-12-12T19:46:32.821Z,17.20
2022-12-12T19:49:02.454Z,16.88
2022-12-12T19:51:32.767Z,18.67
2022-12-12T19:54:00.760Z,16.85
2022-12-12T19:56:29.832Z,19.38
2022-12-12T19:58:58.316Z,22.20
2022-12-12T20:01:28.809Z,19.67
2022-12-12T20:03:57.984Z,21.85
2022-12-12T20:06:25.933Z,19.15
2022-12-12T20:08:53.662Z,17.15
2022-12-12T20:11:24.101Z,20.38
2022-12-12T20:13:56.665Z,19.67
2022-12-12T20:16:26.429Z,19.52
2022-12-12T20:18:53.806Z,17.80
2022-12-12T20:21:59.164Z,18.27
2022-12-12T20:24:12.030Z,19.70
2022-12-12T20:26:40.717Z,19.73
2022-12-12T20:29:09.039Z,18.63
2022-12-12T20:31:38.214Z,22.17
2022-12-12T20:34:04.867Z,20.60
2022-12-12T20:36:33.772Z,18.40
2022-12-12T20:39:03.193Z,23.65
2022-12-12T20:41:36.764Z,24.48
2022-12-12T20:44:04.901Z,25.33
2022-12-12T20:46:34.977Z,20.02
2022-12-12T20:49:03.881Z,23.38
2022-12-12T20:51:54.780Z,19.95
2022-12-12T20:54:21.637Z,17.33
2022-12-12T20:56:52.348Z,22.23
2022-12-12T20:59:19.516Z,15.75
2022-12-12T21:01:47.579Z,22.05
2022-12-12T21:04:15.451Z,19.27
2022-12-12T21:06:44.934Z,22.08
2022-12-12T21:09:16.340Z,22.63
2022-12-12T21:11:46.173Z,22.38
2022-12-12T21:14:12.955Z,21.00
2022-12-12T21:16:40.495Z,18.65
2022-12-12T21:19:11.385Z,17.95
2022-12-12T21:21:39.870Z,17.58
2022-12-12T21:24:07.300Z,20.38
2022-12-12T21:26:34.458Z,20.23
2022-12-12T21:29:02.607Z,20.52
2022-12-12T21:31:33.158Z,21.08
2022-12-12T21:34:00.788Z,24.02
2022-12-12T21:36:28.639Z,25.48
2022-12-12T21:38:57.101Z,18.95
2022-12-12T21:41:24.518Z,24.92
2022-12-12T21:43:51.674Z,24.77
2022-12-12T21:46:21.583Z,21.63
2022-12-12T21:49:11.664Z,17.98
2022-12-12T21:51:39.696Z,19.52
2022-12-12T21:54:08.468Z,17.58
2022-12-12T21:56:35.359Z,22.50
2022-12-12T21:59:03.326Z,20.67
2022-12-12T22:01:32.235Z,25.50
2022-12-12T22:04:00.409Z,21.45
2022-12-12T22:06:30.265Z,21.17
2022-12-12T22:08:58.433Z,21.35
2022-12-12T22:11:39.928Z,19.58
2022-12-12T22:14:10.517Z,21.73
2022-12-12T22:16:37.875Z,23.58
2022-12-12T22:19:11.583Z,23.65
2022-12-12T22:21:38.558Z,22.30
2022-12-12T22:24:05.570Z,21.77
2022-12-12T22:26:38.227Z,21.67
2022-12-12T22:29:13.449Z,23.63
2022-12-12T22:31:41.703Z,21.17
2022-12-12T22:34:17.227Z,22.55
2022-12-12T22:36:45.395Z,23.33
2022-12-12T22:39:23.676Z,21.30
2022-12-12T22:41:50.873Z,21.83
2022-12-12T22:44:19.085Z,21.85
2022-12-12T22:46:47.517Z,22.08
2022-12-12T22:49:16.502Z,23.48
2022-12-12T22:51:43.709Z,20.88
2022-12-12T22:54:10.886Z,24.77
2022-12-12T22:56:38.654Z,22.48
2022-12-12T22:59:06.880Z,21.10
2022-12-12T23:01:34.345Z,24.88
2022-12-12T23:04:01.007Z,21.33
2022-12-12T23:06:27.627Z,20.02
2022-12-12T23:08:59.699Z,21.70
2022-12-12T23:11:28.563Z,20.25
2022-12-12T23:13:59.639Z,20.25
2022-12-12T23:16:27.615Z,23.60
2022-12-12T23:18:54.540Z,23.95
2022-12-12T23:21:25.936Z,19.27
2022-12-12T23:23:53.735Z,26.10
2022-12-12T23:26:24.597Z,26.33
2022-12-12T23:28:51.483Z,21.35
2022-12-12T23:31:29.692Z,20.08
2022-12-12T23:33:59.127Z,25.58
2022-12-12T23:36:26.820Z,22.65
2022-12-12T23:38:57.986Z,19.95
2022-12-12T23:41:25.529Z,25.52
2022-12-12T23:43:52.339Z,18.70
2022-12-12T23:46:28.405Z,19.13
2022-12-12T23:49:01.428Z,22.95
2022-12-12T23:51:30.129Z,21.70
2022-12-12T23:53:58.644Z,24.15
2022-12-12T23:56:26.355Z,20.70
2022-12-12T23:58:54.233Z,24.38
